Station: Fortescue Dave Forrest  

  Atmospheric Gas Attenuation - ITU Rec 676-11   ----------------- dB/100km -----------------
Date Time Temp RH % AH g/m3 Dew Point Wind Direction Speed kph Gust kph Barometer mB Rainfall Since 9am 24GHz 47GHz 76GHz 122GHz 134GHz 241GHz
08/05 09:20 19.4 35 5.84 3.6 22 26 1023.1 0 13.5 20.7 27.7 72.1 60.0 204.5
08/05 09:09 18.7 36 5.76 3.5 24 35 1023.2 0 13.4 20.8 27.7 72.0 59.7 203.1
08/05 09:00 19 36 5.87 3.6 24 35 1022.8 0 13.6 20.8 27.9 72.7 60.7 206.6
08/05 08:50 18 38 5.84 3.6 22 26 1023.5 0 13.6 21.0 28.2 73.4 61.1 208.1
08/05 08:40 17.5 39 5.81 3.4 24 26 1023.6 0 13.5 21.1 28.3 73.6 61.1 208.2
08/05 08:30 16.9 40 5.75 3.2 22 32 1022.8 0 13.4 21.1 28.2 73.5 60.9 207.2
08/05 08:20 16.7 40 5.68 3.3 19 24 1023.8 0 13.3 21.1 28.1 73.1 60.3 205.0
08/05 08:09 16.3 41 5.69 3.2 20 24 1023.9 0 13.3 21.2 28.3 73.6 60.7 206.4
08/05 08:00 16.2 42 5.79 3.3 20 30 1022.9 0 13.5 21.4 28.6 74.5 61.9 210.6
08/05 07:50 15.9 41 5.55 2.9 19 22 1023.9 0 13.0 21.1 27.9 72.6 59.4 201.8
08/05 07:40 15.4 42 5.52 2.5 17 20 1023.9 0 13.0 21.2 28.0 72.8 59.4 201.8
08/05 07:30 15 42 5.39 2.2 17 26 1022.6 0 12.7 21.0 27.6 71.8 58.1 197.3
08/05 07:20 14.5 42 5.22 1.9 17 22 1023.8 0 12.4 21.0 27.2 70.8 56.6 191.8
08/05 07:10 14.2 42 5.13 1.7 17 20 1023.7 0 12.2 20.9 27.0 70.2 55.7 188.8
08/05 07:00 13.9 43 5.16 1.5 17 22 1022.3 0 12.3 21.0 27.2 70.6 56.2 190.5
08/05 06:50 13.6 43 5.06 1.2 13 17 1023.6 0 12.1 20.9 27.0 70.0 55.3 187.3
08/05 06:40 13.5 42 4.91 1 13 19 1023.5 0 11.8 20.7 26.5 68.7 53.7 181.4
08/05 06:30 13.5 42 4.91 0.9 17 24 1022.1 0 11.8 20.7 26.4 68.6 53.6 181.2
08/05 06:20 13.4 42 4.88 0.8 15 19 1023.5 0 11.7 20.7 26.4 68.5 53.4 180.4
08/05 06:09 13.4 41 4.77 0.6 15 19 1023.5 0 11.5 20.6 26.0 67.5 52.1 175.9
08/05 06:00 13.4 41 4.77 0.4 13 17 1022 0 11.5 20.5 26.0 67.4 52.0 175.7
08/05 05:50 13.7 40 4.74 0.5 13 13 1023.3 0 11.4 20.4 25.8 66.9 51.6 174.0
08/05 05:40 14 39 4.7 0.5 15 19 1023.2 0 11.3 20.3 25.6 66.3 50.9 171.8
08/05 05:30 14.1 39 4.73 0.4 15 20 1021.7 0 11.4 20.3 25.6 66.4 51.1 172.6
08/05 05:19 14.1 39 4.73 0.4 15 19 1022.9 0 11.4 20.3 25.6 66.5 51.2 172.7
08/05 05:09 14.2 38 4.64 0.3 13 19 1022.8 0 11.2 20.2 25.3 65.6 50.1 168.9
08/05 05:00 14.4 38 4.7 0.3 17 20 1021.3 0 11.3 20.2 25.4 65.8 50.6 170.7
08/05 04:49 14.4 38 4.7 0.3 15 20 1022.6 0 11.3 20.2 25.4 65.9 50.6 170.9
08/05 04:40 14.7 37 4.66 0.3 15 19 1022.4 0 11.2 20.1 25.2 65.3 50.0 168.6
08/05 04:30 14.8 37 4.69 0.3 17 22 1022.2 0 11.3 20.1 25.3 65.5 50.3 169.6
08/05 04:19 14.8 37 4.69 0.2 19 20 1022.1 0 11.3 20.1 25.3 65.5 50.3 169.6
08/05 04:09 15 36 4.62 0.2 19 20 1022.1 0 11.1 20.0 25.0 64.7 49.3 166.4
08/05 04:00 15.3 36 4.7 0.3 17 24 1020.9 0 11.3 20.0 25.1 65.1 50.0 168.8
08/05 03:49 15.4 35 4.6 0.1 19 22 1022 0 11.1 19.8 24.8 64.2 48.9 164.8
08/05 03:39 15.5 34 4.49 0 17 20 1021.9 0 10.8 19.7 24.4 63.1 47.6 160.3
08/05 03:30 15.5 34 4.49 -0.3 19 28 1020.7 0 10.8 19.6 24.3 63.0 47.5 160.1
08/05 03:20 15.6 34 4.52 -0.2 17 22 1021.7 0 10.9 19.7 24.4 63.3 47.9 161.2
08/05 03:09 15.8 33 4.44 -0.2 19 24 1021.6 0 10.7 19.5 24.1 62.4 46.9 157.7
08/05 03:00 15.9 33 4.47 -0.3 19 26 1020.7 0 10.8 19.5 24.2 62.5 47.1 158.6
08/05 02:49 16 33 4.5 -0.3 17 22 1021.7 0 10.8 19.6 24.3 62.8 47.4 159.7
08/05 02:40 16.1 32 4.39 -0.4 17 19 1021.6 0 10.6 19.4 23.9 61.8 46.1 155.3
08/05 02:30 16.2 32 4.41 -0.5 19 26 1020.7 0 10.6 19.4 23.9 61.8 46.3 155.7
08/05 02:19 16.4 31 4.33 -0.5 19 22 1021.7 0 10.5 19.3 23.6 61.0 45.3 152.4
08/05 02:10 16.6 31 4.38 -0.5 15 19 1021.7 0 10.6 19.3 23.7 61.3 45.8 154.0
08/05 02:00 16.7 31 4.41 -0.5 17 20 1021 0 10.6 19.3 23.7 61.4 46.0 154.8
08/05 01:50 16.9 30 4.31 -0.6 15 20 1021.8 0 10.4 19.1 23.4 60.5 44.8 150.8
08/05 01:40 17.1 30 4.37 -0.6 17 20 1021.7 0 10.5 19.2 23.5 60.8 45.4 152.6
08/05 01:30 17.4 30 4.45 -0.3 19 24 1021 0 10.7 19.2 23.7 61.3 46.0 155.0
08/05 01:20 17.6 29 4.35 -0.6 15 20 1021.6 0 10.5 19.0 23.3 60.3 44.9 151.0
08/05 01:10 17.8 28 4.25 -0.6 17 20 1021.6 0 10.3 18.9 22.9 59.3 43.7 146.9
08/05 01:00 18 28 4.3 -0.8 15 20 1021 0 10.3 18.9 23.0 59.5 44.1 148.3
08/05 00:49 18.2 28 4.35 -0.7 15 20 1021.5 0 10.4 18.9 23.1 59.9 44.5 149.9
08/05 00:39 18.4 27 4.25 -0.7 15 17 1021.5 0 10.2 18.7 22.8 58.9 43.4 145.8
08/05 00:30 18.5 27 4.27 -0.8 13 19 1021 0 10.3 18.7 22.8 58.9 43.5 146.3
08/05 00:19 18.7 27 4.32 -0.7 13 17 1021.6 0 10.4 18.8 22.9 59.2 44.0 147.9
08/05 00:09 18.9 26 4.21 -0.7 13 17 1021.6 0 10.1 18.6 22.5 58.2 42.7 143.5
08/05 00:00 19 26 4.24 -0.9 15 19 1021.2 0 10.2 18.6 22.6 58.3 42.9 144.4
07/05 23:49 19.2 26 4.29 -0.8 17 20 1021.6 0 10.3 18.6 22.7 58.6 43.4 145.9
07/05 23:39 19.5 25 4.2 -0.7 17 20 1021.5 0 10.1 18.5 22.3 57.7 42.3 142.1
07/05 23:30 19.6 25 4.22 -0.9 17 20 1021.2 0 10.1 18.5 22.3 57.7 42.4 142.6
07/05 23:20 19.8 25 4.27 -0.7 17 20 1021.4 0 10.2 18.5 22.5 58.0 42.9 144.1
07/05 23:10 19.8 25 4.27 -0.7 17 19 1021.5 0 10.2 18.5 22.5 58.0 42.9 144.1
07/05 23:00 20 25 4.32 -0.6 20 26 1021.1 0 10.3 18.5 22.5 58.3 43.3 145.5
07/05 22:49 20.1 24 4.17 -0.7 22 28 1021.3 0 10.0 18.3 22.1 57.0 41.7 140.0
07/05 22:40 20.3 24 4.22 -0.7 20 22 1021.3 0 10.1 18.3 22.2 57.3 42.1 141.4
07/05 22:30 20.4 24 4.25 -0.8 20 28 1021.1 0 10.2 18.3 22.2 57.4 42.3 142.3
07/05 22:19 20.6 24 4.3 -0.8 22 26 1021.2 0 10.3 18.4 22.3 57.7 42.7 143.8
07/05 22:10 20.9 23 4.19 -0.8 26 30 1021.1 0 10.0 18.2 21.9 56.6 41.5 139.3
07/05 22:00 20.8 23 4.16 -1.1 22 30 1021 0 10.0 18.2 21.8 56.4 41.2 138.4
07/05 21:50 20.9 23 4.19 -0.9 22 28 1021 0 10.0 18.2 21.9 56.6 41.5 139.3
07/05 21:40 21.2 22 4.08 -0.9 26 28 1020.8 0 9.8 18.0 21.5 55.5 40.2 134.9
07/05 21:30 21.3 23 4.29 -0.6 24 35 1020.7 0 10.2 18.2 22.1 57.1 42.3 142.2
07/05 21:20 21.2 22 4.08 -1 26 30 1020.7 0 9.8 18.0 21.5 55.5 40.2 134.9
07/05 21:09 21.5 22 4.15 -0.9 26 32 1020.5 0 9.9 18.0 21.6 55.8 40.7 136.8
07/05 21:00 21.4 23 4.31 -0.6 24 32 1020.6 0 10.3 18.2 22.1 57.2 42.4 142.7
07/05 20:49 21.3 23 4.29 -0.6 22 28 1020.5 0 10.2 18.2 22.1 57.1 42.3 142.2
07/05 20:39 21.5 23 4.34 -0.5 20 20 1020.5 0 10.3 18.2 22.2 57.4 42.7 143.6
07/05 20:30 21.7 23 4.39 -0.3 22 32 1020.5 0 10.4 18.3 22.3 57.7 43.1 145.1
07/05 20:20 21.8 23 4.41 -0.1 20 24 1020.2 0 10.5 18.3 22.3 57.7 43.2 145.6
07/05 20:09 22.1 23 4.49 0.1 20 24 1020 0 10.6 18.3 22.5 58.2 43.8 147.9
07/05 20:00 22.2 23 4.52 0.1 22 28 1020 0 10.7 18.3 22.5 58.3 44.1 148.8
07/05 19:50 22.2 23 4.52 0.5 20 24 1019.7 0 10.7 18.3 22.5 58.3 44.1 148.7
07/05 19:39 22.4 24 4.77 0.8 24 28 1019.5 0 11.2 18.6 23.2 60.2 46.5 157.3
07/05 19:30 22.4 24 4.77 0.9 20 28 1019.7 0 11.2 18.6 23.3 60.2 46.5 157.3
07/05 19:20 22.6 24 4.82 1 20 22 1019.3 0 11.3 18.6 23.3 60.5 46.9 158.7
07/05 19:10 22.7 24 4.85 1.1 28 32 1019.1 0 11.4 18.6 23.4 60.6 47.1 159.6
07/05 19:00 22.9 24 4.9 1.3 22 32 1019.2 0 11.5 18.6 23.5 60.9 47.5 161.0
07/05 18:50 23 24 4.93 1.3 22 24 1018.8 0 11.5 18.6 23.6 61.1 47.8 161.8
07/05 18:40 23.1 23 4.75 1.3 19 20 1018.7 0 11.1 18.4 23.0 59.5 45.9 155.2
07/05 18:30 23.3 24 5.02 1.6 24 32 1018.9 0 11.7 18.7 23.7 61.6 48.5 164.5
07/05 18:19 23.4 23 4.84 1.4 26 30 1018.4 0 11.3 18.4 23.2 60.0 46.6 157.8
07/05 18:09 23.4 23 4.84 1.4 26 30 1018.2 0 11.3 18.4 23.1 60.0 46.6 157.8
07/05 18:00 23.7 23 4.92 1.4 26 33 1018.6 0 11.5 18.5 23.3 60.5 47.3 160.1
07/05 17:50 23.8 23 4.95 1.4 24 32 1017.9 0 11.5 18.5 23.4 60.6 47.5 160.9
07/05 17:39 24 23 5 1.5 22 24 1017.8 0 11.6 18.5 23.5 60.8 47.9 162.3
07/05 17:30 24.4 23 5.12 1.9 28 33 1018.3 0 11.9 18.6 23.7 61.6 48.9 165.8
07/05 17:20 24.7 22 4.98 1.6 22 28 1017.4 0 11.6 18.3 23.2 60.2 47.3 160.2
07/05 17:10 24.8 22 5.01 1.6 26 32 1017.3 0 11.6 18.3 23.3 60.3 47.5 161.0
07/05 17:00 25.1 22 5.09 1.9 26 35 1018 0 11.8 18.4 23.4 60.8 48.1 163.4
07/05 16:50 25.4 21 4.94 1.8 24 28 1017 0 11.5 18.1 22.9 59.3 46.4 157.4

Last Refresh: 08-May-2026 11:03:01

Bureau of Meteorology